createdAt,value
2023-02-01T05:00:36.197Z,86.98
2023-02-01T05:01:36.273Z,86.98
2023-02-01T05:02:36.118Z,86.68
2023-02-01T05:03:36.110Z,86.98
2023-02-01T05:04:36.174Z,86.78
2023-02-01T05:05:36.086Z,86.36
2023-02-01T05:06:36.083Z,86.53
2023-02-01T05:07:36.061Z,86.78
2023-02-01T05:08:38.688Z,86.88
2023-02-01T05:09:36.055Z,86.57
2023-02-01T05:10:36.035Z,86.47
2023-02-01T05:11:41.049Z,86.47
2023-02-01T05:12:36.003Z,86.26
2023-02-01T05:13:36.009Z,86.47
2023-02-01T05:14:35.983Z,86.57
2023-02-01T05:15:35.993Z,86.78
2023-02-01T05:16:35.997Z,86.57
2023-02-01T05:17:35.973Z,87.08
2023-02-01T05:18:35.937Z,87.40
2023-02-01T05:19:35.935Z,87.81
2023-02-01T05:20:35.920Z,88.74
2023-02-01T05:21:35.926Z,88.95
2023-02-01T05:22:40.917Z,89.05
2023-02-01T05:23:35.884Z,89.77
2023-02-01T05:24:35.876Z,90.08
2023-02-01T05:25:35.874Z,89.92
2023-02-01T05:26:35.884Z,90.84
2023-02-01T05:27:35.873Z,90.84
2023-02-01T05:28:35.826Z,90.64
2023-02-01T05:29:35.823Z,90.95
2023-02-01T05:30:35.841Z,91.46
2023-02-01T05:31:35.903Z,91.67
2023-02-01T05:32:35.815Z,91.56
2023-02-01T05:33:40.809Z,91.67
2023-02-01T05:34:35.766Z,91.71
2023-02-01T05:35:35.749Z,91.50
2023-02-01T05:36:35.759Z,91.46
2023-02-01T05:37:35.738Z,91.56
2023-02-01T05:38:35.721Z,91.40
2023-02-01T05:39:35.707Z,91.40
2023-02-01T05:40:35.706Z,91.67
2023-02-01T05:41:35.692Z,91.77
2023-02-01T05:42:35.683Z,91.56
2023-02-01T05:43:35.658Z,91.61
2023-02-01T05:44:40.670Z,91.67
2023-02-01T05:45:35.636Z,91.50
2023-02-01T05:46:35.685Z,91.88
2023-02-01T05:47:35.624Z,92.02
2023-02-01T05:48:35.636Z,92.13
2023-02-01T05:49:35.595Z,92.02
2023-02-01T05:50:35.578Z,92.19
2023-02-01T05:51:35.576Z,92.13
2023-02-01T05:52:35.569Z,92.44
2023-02-01T05:53:35.548Z,92.44
2023-02-01T05:54:35.533Z,92.54
2023-02-01T05:55:40.548Z,92.44
2023-02-01T05:56:35.513Z,92.08
2023-02-01T05:57:35.513Z,92.19
2023-02-01T05:58:35.497Z,92.64
2023-02-01T05:59:35.485Z,92.60
2023-02-01T06:00:35.471Z,92.44
2023-02-01T06:01:35.462Z,92.54
2023-02-01T06:02:35.509Z,92.74
2023-02-01T06:03:35.487Z,92.95
2023-02-01T06:04:35.455Z,92.64
2023-02-01T06:05:35.421Z,92.74
2023-02-01T06:06:40.425Z,92.54
2023-02-01T06:07:35.402Z,92.64
2023-02-01T06:08:35.377Z,92.85
2023-02-01T06:09:35.370Z,92.95
2023-02-01T06:10:35.365Z,93.05
2023-02-01T06:11:35.348Z,92.85
2023-02-01T06:12:35.343Z,92.85
2023-02-01T06:13:35.334Z,92.85
2023-02-01T06:14:35.309Z,92.74
2023-02-01T06:15:35.334Z,92.44
2023-02-01T06:16:35.302Z,92.85
2023-02-01T06:17:40.317Z,92.54
2023-02-01T06:18:35.269Z,92.54
2023-02-01T06:19:35.294Z,92.54
2023-02-01T06:20:35.271Z,92.44
2023-02-01T06:21:35.246Z,92.44
2023-02-01T06:22:35.244Z,92.54
2023-02-01T06:23:35.211Z,92.02
2023-02-01T06:24:35.200Z,92.13
2023-02-01T06:25:35.195Z,92.13
2023-02-01T06:26:35.198Z,91.50
2023-02-01T06:27:35.178Z,91.30
2023-02-01T06:28:40.185Z,91.20
2023-02-01T06:29:35.146Z,90.64
2023-02-01T06:30:35.218Z,90.99
2023-02-01T06:31:35.192Z,91.26
2023-02-01T06:32:35.139Z,90.89
2023-02-01T06:33:35.130Z,90.78
2023-02-01T06:34:35.161Z,90.53
2023-02-01T06:35:35.080Z,90.68
2023-02-01T06:36:35.093Z,91.26
2023-02-01T06:37:35.069Z,91.09
2023-02-01T06:38:35.048Z,90.89
2023-02-01T06:39:40.059Z,90.99
2023-02-01T06:40:35.036Z,91.09
2023-02-01T06:41:35.013Z,91.09
2023-02-01T06:42:35.020Z,90.84
2023-02-01T06:43:35.003Z,89.92
2023-02-01T06:44:34.989Z,90.33
2023-02-01T06:45:34.971Z,90.53
2023-02-01T06:46:35.002Z,90.47
2023-02-01T06:47:34.951Z,89.92
2023-02-01T06:48:34.935Z,90.12
2023-02-01T06:49:34.922Z,89.50
2023-02-01T06:50:39.931Z,89.71
2023-02-01T06:51:34.911Z,89.95
2023-02-01T06:52:34.917Z,89.19
2023-02-01T06:53:34.901Z,89.09
2023-02-01T06:54:34.870Z,89.40
2023-02-01T06:55:34.857Z,88.98
2023-02-01T06:56:34.842Z,88.57
2023-02-01T06:57:34.843Z,88.16
2023-02-01T06:58:34.827Z,88.26
2023-02-01T06:59:34.810Z,87.95
2023-02-01T07:00:34.842Z,87.92
2023-02-01T07:01:39.814Z,87.74
2023-02-01T07:02:34.793Z,87.29
2023-02-01T07:03:34.770Z,86.98
2023-02-01T07:04:34.772Z,87.08
2023-02-01T07:05:34.749Z,87.08
2023-02-01T07:06:34.734Z,86.98
2023-02-01T07:07:34.729Z,86.68
2023-02-01T07:08:34.739Z,86.78
2023-02-01T07:09:34.716Z,86.36
2023-02-01T07:10:34.690Z,86.05
2023-02-01T07:11:34.675Z,86.16
2023-02-01T07:12:39.700Z,85.95
2023-02-01T07:13:34.658Z,86.05
2023-02-01T07:14:34.652Z,85.95
2023-02-01T07:15:34.637Z,86.05
2023-02-01T07:16:34.718Z,86.16
2023-02-01T07:17:34.618Z,85.75
2023-02-01T07:18:34.604Z,85.75
2023-02-01T07:19:34.597Z,85.95
2023-02-01T07:20:34.576Z,86.16
2023-02-01T07:21:34.586Z,86.16
2023-02-01T07:22:34.564Z,86.16
2023-02-01T07:23:39.595Z,86.16
2023-02-01T07:24:34.529Z,86.36
2023-02-01T07:25:34.524Z,86.26
2023-02-01T07:26:34.560Z,86.36
2023-02-01T07:27:34.530Z,86.41
2023-02-01T07:28:34.497Z,86.16
2023-02-01T07:29:34.479Z,85.64
2023-02-01T07:30:34.535Z,86.05
2023-02-01T07:31:34.450Z,85.85
2023-02-01T07:32:34.537Z,85.54
2023-02-01T07:33:34.430Z,86.26
2023-02-01T07:34:39.458Z,85.95
2023-02-01T07:35:34.411Z,85.64
2023-02-01T07:36:34.398Z,85.37
2023-02-01T07:37:34.399Z,86.16
2023-02-01T07:38:34.388Z,85.33
2023-02-01T07:39:34.417Z,85.95
2023-02-01T07:40:34.361Z,85.75
2023-02-01T07:41:34.336Z,85.54
2023-02-01T07:42:34.343Z,85.54
2023-02-01T07:43:34.362Z,85.75
2023-02-01T07:44:34.317Z,85.44
2023-02-01T07:45:39.347Z,84.81
2023-02-01T07:46:34.289Z,84.81
2023-02-01T07:47:34.282Z,84.92
2023-02-01T07:48:34.275Z,84.72
2023-02-01T07:49:34.259Z,84.51
2023-02-01T07:50:34.246Z,84.81
2023-02-01T07:51:34.285Z,84.41
2023-02-01T07:52:34.224Z,84.30
2023-02-01T07:53:34.207Z,84.41
2023-02-01T07:54:34.194Z,84.72
2023-02-01T07:55:34.218Z,84.61
2023-02-01T07:56:39.201Z,83.58
2023-02-01T07:57:34.200Z,83.48
2023-02-01T07:58:34.146Z,83.48
2023-02-01T07:59:34.138Z,83.44
2023-02-01T08:00:34.150Z,82.86
2023-02-01T08:01:34.120Z,83.75
2023-02-01T08:02:34.189Z,83.95
2023-02-01T08:03:34.088Z,83.13
2023-02-01T08:04:34.076Z,82.71
2023-02-01T08:05:34.064Z,82.82
2023-02-01T08:06:34.058Z,83.23
2023-02-01T08:07:39.081Z,82.92
2023-02-01T08:08:34.040Z,82.47
2023-02-01T08:09:34.019Z,82.61
2023-02-01T08:10:34.019Z,82.71
2023-02-01T08:11:34.021Z,82.92
2023-02-01T08:12:33.988Z,83.03
2023-02-01T08:13:33.990Z,82.92
2023-02-01T08:14:33.966Z,82.92
2023-02-01T08:15:33.954Z,83.03
2023-02-01T08:16:33.967Z,82.40
2023-02-01T08:17:33.935Z,82.06
2023-02-01T08:18:38.952Z,82.57
2023-02-01T08:19:33.906Z,82.71
2023-02-01T08:20:33.898Z,82.20
2023-02-01T08:21:33.883Z,82.10
2023-02-01T08:22:33.877Z,82.30
2023-02-01T08:23:33.879Z,82.20
2023-02-01T08:24:33.860Z,81.27
2023-02-01T08:25:33.846Z,81.48
2023-02-01T08:26:33.941Z,81.17
2023-02-01T08:27:33.838Z,81.99
2023-02-01T08:28:33.830Z,82.20
2023-02-01T08:29:38.834Z,81.48
2023-02-01T08:30:33.801Z,81.68
2023-02-01T08:31:33.829Z,81.68
2023-02-01T08:32:33.759Z,81.58
2023-02-01T08:33:33.765Z,81.34
2023-02-01T08:34:35.784Z,81.27
2023-02-01T08:35:43.427Z,81.37
2023-02-01T08:36:34.717Z,81.34
2023-02-01T08:37:33.714Z,81.79
2023-02-01T08:38:33.739Z,82.16
2023-02-01T08:39:33.683Z,82.06
2023-02-01T08:40:38.711Z,82.47
2023-02-01T08:41:33.660Z,82.71
2023-02-01T08:42:33.650Z,82.68
2023-02-01T08:43:33.676Z,82.26
2023-02-01T08:44:33.625Z,80.93
2023-02-01T08:45:33.636Z,81.54
2023-02-01T08:46:33.622Z,82.16
2023-02-01T08:47:33.598Z,81.75
2023-02-01T08:48:33.597Z,81.85
2023-02-01T08:49:33.565Z,81.34
2023-02-01T08:50:33.557Z,81.34
2023-02-01T08:51:38.566Z,81.34
2023-02-01T08:52:33.535Z,81.34
2023-02-01T08:53:33.537Z,81.54
2023-02-01T08:54:33.507Z,81.34
2023-02-01T08:55:33.495Z,81.44
2023-02-01T08:56:33.519Z,81.23
2023-02-01T08:57:33.474Z,81.65
2023-02-01T08:58:33.491Z,81.44
2023-02-01T08:59:33.467Z,81.61
2023-02-01T09:00:33.446Z,81.65
2023-02-01T09:01:33.450Z,81.23
2023-02-01T09:02:38.441Z,80.79
2023-02-01T09:03:33.471Z,81.03
2023-02-01T09:04:33.405Z,80.47
2023-02-01T09:05:48.500Z,80.68
2023-02-01T09:06:34.372Z,80.68
2023-02-01T09:07:33.359Z,80.79
2023-02-01T09:08:33.367Z,80.79
2023-02-01T09:09:33.336Z,80.54
2023-02-01T09:10:35.540Z,80.13
2023-02-01T09:11:33.329Z,80.27
2023-02-01T09:12:33.319Z,80.13
2023-02-01T09:13:38.342Z,79.82
2023-02-01T09:14:33.320Z,79.51
2023-02-01T09:15:33.359Z,79.82
2023-02-01T09:16:33.269Z,79.51
2023-02-01T09:17:33.260Z,79.51
2023-02-01T09:18:33.257Z,79.30
2023-02-01T09:19:33.234Z,79.37
2023-02-01T09:20:33.212Z,79.47
2023-02-01T09:21:33.200Z,79.51
2023-02-01T09:22:33.192Z,78.38
2023-02-01T09:23:33.181Z,78.17
2023-02-01T09:24:38.292Z,78.38
2023-02-01T09:25:33.152Z,78.69
2023-02-01T09:26:33.381Z,78.58
2023-02-01T09:27:33.131Z,78.07
2023-02-01T09:28:33.125Z,78.44
2023-02-01T09:29:33.125Z,78.03
2023-02-01T09:30:33.102Z,78.34
2023-02-01T09:31:33.296Z,77.21
2023-02-01T09:32:33.108Z,77.83
2023-02-01T09:33:33.065Z,77.93
2023-02-01T09:34:33.070Z,77.83
2023-02-01T09:35:38.063Z,77.55
2023-02-01T09:36:33.031Z,77.86
2023-02-01T09:37:33.022Z,77.72
2023-02-01T09:38:34.582Z,77.45
2023-02-01T09:39:33.015Z,77.35
2023-02-01T09:40:33.015Z,76.70
2023-02-01T09:41:32.991Z,76.39
2023-02-01T09:42:32.965Z,75.67
2023-02-01T09:43:32.984Z,75.77
2023-02-01T09:44:42.504Z,75.77
2023-02-01T09:45:33.945Z,75.39
2023-02-01T09:46:37.959Z,75.25
2023-02-01T09:47:32.911Z,75.67
2023-02-01T09:48:32.895Z,75.35
2023-02-01T09:49:32.884Z,74.95
2023-02-01T09:50:32.883Z,75.05
2023-02-01T09:51:32.863Z,74.95
2023-02-01T09:52:32.860Z,74.53
2023-02-01T09:53:32.838Z,75.35
2023-02-01T09:54:32.827Z,74.63
2023-02-01T09:55:32.824Z,74.43
2023-02-01T09:56:32.804Z,74.53
2023-02-01T09:57:37.815Z,74.43
2023-02-01T09:58:32.791Z,73.71
2023-02-01T09:59:32.821Z,74.02
2023-02-01T10:00:32.769Z,74.02
2023-02-01T10:01:32.990Z,73.40
2023-02-01T10:02:32.756Z,73.19
2023-02-01T10:03:32.800Z,72.27
2023-02-01T10:04:32.728Z,71.55
2023-02-01T10:05:32.719Z,72.06
2023-02-01T10:06:32.692Z,71.44
2023-02-01T10:07:32.681Z,72.68
2023-02-01T10:08:37.702Z,72.78
2023-02-01T10:09:32.675Z,72.16
2023-02-01T10:10:32.664Z,71.44
2023-02-01T10:11:32.633Z,72.27
2023-02-01T10:12:32.629Z,71.96
2023-02-01T10:13:32.611Z,71.65
2023-02-01T10:14:32.615Z,71.72
2023-02-01T10:15:32.621Z,71.34
2023-02-01T10:16:32.678Z,71.82
2023-02-01T10:17:32.569Z,72.27
2023-02-01T10:18:32.590Z,71.51
2023-02-01T10:19:37.567Z,71.72
2023-02-01T10:20:32.546Z,72.88
2023-02-01T10:21:32.525Z,71.51
2023-02-01T10:22:52.383Z,71.24
2023-02-01T10:23:34.801Z,72.13
2023-02-01T10:24:32.490Z,71.10
2023-02-01T10:25:32.486Z,71.10
2023-02-01T10:26:32.561Z,71.20
2023-02-01T10:27:32.455Z,70.83
2023-02-01T10:28:32.444Z,71.44
2023-02-01T10:29:32.434Z,71.20
2023-02-01T10:30:37.472Z,71.31
2023-02-01T10:31:32.533Z,71.82
2023-02-01T10:32:32.402Z,71.72
2023-02-01T10:33:32.391Z,71.72
2023-02-01T10:34:32.398Z,71.03
2023-02-01T10:35:32.364Z,71.00
2023-02-01T10:36:32.365Z,71.24
2023-02-01T10:37:32.341Z,71.75
2023-02-01T10:38:32.335Z,71.86
2023-02-01T10:39:32.320Z,71.34
2023-02-01T10:40:32.307Z,71.86
2023-02-01T10:41:37.341Z,71.96
2023-02-01T10:42:32.285Z,71.86
2023-02-01T10:43:32.279Z,71.86
2023-02-01T10:44:32.273Z,71.75
2023-02-01T10:45:32.249Z,71.86
2023-02-01T10:46:32.305Z,71.14
2023-02-01T10:47:32.286Z,71.24
2023-02-01T10:48:32.223Z,71.24
2023-02-01T10:49:32.208Z,71.96
2023-02-01T10:50:32.217Z,71.75
2023-02-01T10:51:32.206Z,71.86
2023-02-01T10:52:37.195Z,71.24
2023-02-01T10:53:32.168Z,71.75
2023-02-01T10:54:32.150Z,71.44
2023-02-01T10:55:32.139Z,71.75
2023-02-01T10:56:32.135Z,71.24
2023-02-01T10:57:32.120Z,71.75
2023-02-01T10:58:32.104Z,71.65
2023-02-01T10:59:32.100Z,72.88
2023-02-01T11:00:32.084Z,71.86
2023-02-01T11:01:32.164Z,70.83
2023-02-01T11:02:32.185Z,71.44
2023-02-01T11:03:37.071Z,71.51
2023-02-01T11:04:32.037Z,71.41
2023-02-01T11:05:32.025Z,71.55
2023-02-01T11:06:32.042Z,71.00
2023-02-01T11:07:32.007Z,71.65
2023-02-01T11:08:31.991Z,71.10
2023-02-01T11:09:31.980Z,71.20
2023-02-01T11:10:31.970Z,71.00
2023-02-01T11:11:31.973Z,70.90
2023-02-01T11:12:31.981Z,70.62
2023-02-01T11:13:31.943Z,70.62
2023-02-01T11:14:36.948Z,71.20
2023-02-01T11:15:31.920Z,71.20
2023-02-01T11:16:31.994Z,70.18
2023-02-01T11:17:31.906Z,70.59
2023-02-01T11:18:31.888Z,70.52
2023-02-01T11:19:31.871Z,70.59
2023-02-01T11:20:31.866Z,70.93
2023-02-01T11:21:31.848Z,71.24
2023-02-01T11:22:31.866Z,71.75
2023-02-01T11:23:31.829Z,70.69
2023-02-01T11:24:31.819Z,70.69
2023-02-01T11:25:36.829Z,70.59
2023-02-01T11:26:31.809Z,70.90
2023-02-01T11:27:32.462Z,70.38
2023-02-01T11:28:31.765Z,69.97
2023-02-01T11:29:31.758Z,69.15
2023-02-01T11:30:31.764Z,70.59
2023-02-01T11:31:31.819Z,69.66
2023-02-01T11:32:31.727Z,68.63
2023-02-01T11:33:31.709Z,69.66
2023-02-01T11:34:31.696Z,68.53
2023-02-01T11:35:31.704Z,68.84
2023-02-01T11:36:36.704Z,69.04
2023-02-01T11:37:31.678Z,68.74
2023-02-01T11:38:31.685Z,68.53
2023-02-01T11:39:31.651Z,67.81
2023-02-01T11:40:31.629Z,67.81
2023-02-01T11:41:31.621Z,67.81
2023-02-01T11:42:31.619Z,68.53
2023-02-01T11:43:31.597Z,68.32
2023-02-01T11:44:31.594Z,68.77
2023-02-01T11:45:31.589Z,69.04
2023-02-01T11:46:31.624Z,68.84
2023-02-01T11:47:36.587Z,69.46
2023-02-01T11:48:31.554Z,69.76
2023-02-01T11:49:31.551Z,70.59
2023-02-01T11:50:31.517Z,70.18
2023-02-01T11:51:31.507Z,70.59
2023-02-01T11:52:31.543Z,71.00
2023-02-01T11:53:31.482Z,71.00
2023-02-01T11:54:31.493Z,71.82
2023-02-01T11:55:31.466Z,71.20
2023-02-01T11:56:31.447Z,71.20
2023-02-01T11:57:31.448Z,70.79
2023-02-01T11:58:36.459Z,71.41
2023-02-01T11:59:31.421Z,71.51
2023-02-01T12:00:31.403Z,71.10
2023-02-01T12:01:31.391Z,71.10
2023-02-01T12:02:31.397Z,71.41
2023-02-01T12:03:31.421Z,71.31
2023-02-01T12:04:31.355Z,71.41
2023-02-01T12:05:31.910Z,71.51
2023-02-01T12:06:31.336Z,71.41
2023-02-01T12:07:31.323Z,71.10
2023-02-01T12:08:31.324Z,71.31
2023-02-01T12:09:36.352Z,71.20
2023-02-01T12:10:31.287Z,70.59
2023-02-01T12:11:31.279Z,70.48
2023-02-01T12:12:31.264Z,70.18
2023-02-01T12:13:31.275Z,69.56
2023-02-01T12:14:31.256Z,69.87
2023-02-01T12:15:31.244Z,69.97
2023-02-01T12:16:31.271Z,69.76
2023-02-01T12:17:31.228Z,70.28
2023-02-01T12:18:31.224Z,69.56
2023-02-01T12:19:31.197Z,69.15
2023-02-01T12:20:36.204Z,68.63
2023-02-01T12:21:31.171Z,69.25
2023-02-01T12:22:31.151Z,69.66
2023-02-01T12:23:31.164Z,68.84
2023-02-01T12:24:31.128Z,69.35
2023-02-01T12:25:31.138Z,69.46
2023-02-01T12:26:31.211Z,69.46
2023-02-01T12:27:31.114Z,69.15
2023-02-01T12:28:31.101Z,69.46
2023-02-01T12:29:31.073Z,70.10
2023-02-01T12:30:31.094Z,70.28
2023-02-01T12:31:36.131Z,69.79
2023-02-01T12:32:31.043Z,69.76
2023-02-01T12:33:31.039Z,69.76
2023-02-01T12:34:31.017Z,69.66
2023-02-01T12:35:31.004Z,69.87
2023-02-01T12:36:30.996Z,69.87
2023-02-01T12:37:30.985Z,70.21
2023-02-01T12:38:30.981Z,70.52
2023-02-01T12:39:30.966Z,70.48
2023-02-01T12:40:30.955Z,70.79
2023-02-01T12:41:30.976Z,70.10
2023-02-01T12:42:35.945Z,70.48
2023-02-01T12:43:30.935Z,70.69
2023-02-01T12:44:30.915Z,70.10
2023-02-01T12:45:30.918Z,70.69
2023-02-01T12:46:30.883Z,70.59
2023-02-01T12:47:30.868Z,70.69
2023-02-01T12:48:30.868Z,71.24
2023-02-01T12:49:30.856Z,70.72
2023-02-01T12:50:30.836Z,71.00
2023-02-01T12:51:30.827Z,71.03
2023-02-01T12:52:30.810Z,71.03
2023-02-01T12:53:35.847Z,71.14
2023-02-01T12:54:30.789Z,71.34
2023-02-01T12:55:30.783Z,71.34
2023-02-01T12:56:30.775Z,71.10
2023-02-01T12:57:30.786Z,71.31
2023-02-01T12:58:30.745Z,71.65
2023-02-01T12:59:30.749Z,71.51
2023-02-01T13:00:30.732Z,71.44
2023-02-01T13:01:30.768Z,71.24
2023-02-01T13:02:30.780Z,71.55
2023-02-01T13:03:30.707Z,71.34
2023-02-01T13:04:35.709Z,71.14
2023-02-01T13:05:30.667Z,71.03
2023-02-01T13:06:30.653Z,71.34
2023-02-01T13:07:30.643Z,71.31
2023-02-01T13:08:30.645Z,71.14
2023-02-01T13:09:30.664Z,71.34
2023-02-01T13:10:30.611Z,71.44
2023-02-01T13:11:30.604Z,71.24
2023-02-01T13:12:30.590Z,71.55
2023-02-01T13:13:30.595Z,71.55
2023-02-01T13:14:30.606Z,71.24
2023-02-01T13:15:35.582Z,70.83
2023-02-01T13:16:30.582Z,70.83
2023-02-01T13:17:30.532Z,70.72
2023-02-01T13:18:30.518Z,70.59
2023-02-01T13:19:30.523Z,70.83
2023-02-01T13:20:30.502Z,70.00
2023-02-01T13:21:30.490Z,70.07
2023-02-01T13:22:30.479Z,69.18
2023-02-01T13:23:30.468Z,69.79
2023-02-01T13:24:30.465Z,69.49
2023-02-01T13:25:30.441Z,69.87
2023-02-01T13:26:35.509Z,69.49
2023-02-01T13:27:30.423Z,69.49
2023-02-01T13:28:30.414Z,69.18
2023-02-01T13:29:30.443Z,69.66
2023-02-01T13:30:30.459Z,69.70
2023-02-01T13:31:30.485Z,69.59
2023-02-01T13:33:51.634Z,69.59
2023-02-01T13:33:54.593Z,69.70
2023-02-01T13:34:31.355Z,70.72
2023-02-01T13:35:30.352Z,69.38
2023-02-01T13:36:30.315Z,69.90
2023-02-01T13:37:35.342Z,69.49
2023-02-01T13:38:30.318Z,69.18
2023-02-01T13:39:30.289Z,69.70
2023-02-01T13:40:30.278Z,69.38
2023-02-01T13:41:30.279Z,69.59
2023-02-01T13:42:30.251Z,70.07
2023-02-01T13:43:30.248Z,69.66
2023-02-01T13:44:30.229Z,69.46
2023-02-01T13:45:30.254Z,69.46
2023-02-01T13:46:30.212Z,69.15
2023-02-01T13:47:30.205Z,68.63
2023-02-01T13:48:35.205Z,69.59
2023-02-01T13:49:30.175Z,69.25
2023-02-01T13:50:30.199Z,68.63
2023-02-01T13:51:30.147Z,69.35
2023-02-01T13:52:30.144Z,68.74
2023-02-01T13:53:30.161Z,69.04
2023-02-01T13:54:30.160Z,69.18
2023-02-01T13:55:30.145Z,68.94
2023-02-01T13:56:30.096Z,69.04
2023-02-01T13:57:30.080Z,69.07
2023-02-01T13:58:30.080Z,69.04
2023-02-01T13:59:35.091Z,68.66
2023-02-01T14:00:30.067Z,69.15
2023-02-01T14:01:30.314Z,69.04
2023-02-01T14:02:30.045Z,68.66
2023-02-01T14:03:30.013Z,68.53
2023-02-01T14:04:30.050Z,68.53
2023-02-01T14:05:30.005Z,68.22
2023-02-01T14:06:29.978Z,68.32
2023-02-01T14:07:29.978Z,68.74
2023-02-01T14:08:29.989Z,68.43
2023-02-01T14:09:29.946Z,68.53
2023-02-01T14:10:34.964Z,68.22
2023-02-01T14:11:29.945Z,68.53
2023-02-01T14:12:29.912Z,68.32
2023-02-01T14:13:29.902Z,68.43
2023-02-01T14:14:29.887Z,68.43
2023-02-01T14:15:30.004Z,68.74
2023-02-01T14:16:29.867Z,68.74
2023-02-01T14:17:30.000Z,68.22
2023-02-01T14:18:29.847Z,67.81
2023-02-01T14:19:29.836Z,68.02
2023-02-01T14:20:30.057Z,67.81
2023-02-01T14:21:34.842Z,67.81
2023-02-01T14:22:29.804Z,67.91
2023-02-01T14:23:29.785Z,67.81
2023-02-01T14:24:29.788Z,67.71
2023-02-01T14:25:29.783Z,67.60
2023-02-01T14:26:29.811Z,67.81
2023-02-01T14:27:29.742Z,67.60
2023-02-01T14:28:29.740Z,68.02
2023-02-01T14:29:29.723Z,68.02
2023-02-01T14:30:29.718Z,68.02
2023-02-01T14:31:29.832Z,68.02
2023-02-01T14:32:34.759Z,68.22
2023-02-01T14:33:29.695Z,68.63
2023-02-01T14:34:29.665Z,68.12
2023-02-01T14:35:29.653Z,67.81
2023-02-01T14:36:29.654Z,68.12
2023-02-01T14:37:29.638Z,67.40
2023-02-01T14:38:29.619Z,67.81
2023-02-01T14:39:29.607Z,67.71
2023-02-01T14:40:29.601Z,67.81
2023-02-01T14:41:29.595Z,68.12
2023-02-01T14:42:29.573Z,68.22
2023-02-01T14:43:36.233Z,67.91
2023-02-01T14:44:29.548Z,67.50
2023-02-01T14:45:29.721Z,67.30
2023-02-01T14:46:29.586Z,67.60
2023-02-01T14:47:29.533Z,67.30
2023-02-01T14:48:29.546Z,67.40
2023-02-01T14:49:29.497Z,67.09
2023-02-01T14:50:29.526Z,67.71
2023-02-01T14:51:29.485Z,66.99
2023-02-01T14:52:29.459Z,67.36
2023-02-01T14:53:29.468Z,67.16
2023-02-01T14:54:34.457Z,67.16
2023-02-01T14:55:29.447Z,67.71
2023-02-01T14:56:29.434Z,67.81
2023-02-01T14:57:29.411Z,67.40
2023-02-01T14:58:29.428Z,67.36
2023-02-01T14:59:29.388Z,67.19
2023-02-01T15:00:29.375Z,66.06
2023-02-01T15:01:31.410Z,66.37
2023-02-01T15:02:29.413Z,66.37
2023-02-01T15:03:29.335Z,66.03
2023-02-01T15:04:29.356Z,66.13
2023-02-01T15:05:34.343Z,66.13
2023-02-01T15:06:29.303Z,66.24
2023-02-01T15:07:29.317Z,66.13
2023-02-01T15:08:29.280Z,66.64
2023-02-01T15:09:29.915Z,65.65
2023-02-01T15:10:29.263Z,65.62
2023-02-01T15:11:29.248Z,65.52
2023-02-01T15:12:29.247Z,66.34
2023-02-01T15:13:29.221Z,66.03
2023-02-01T15:14:29.224Z,65.72
2023-02-01T15:15:29.197Z,65.62
2023-02-01T15:16:34.211Z,66.31
2023-02-01T15:17:29.220Z,65.38
2023-02-01T15:18:29.180Z,65.59
2023-02-01T15:19:29.156Z,65.38
2023-02-01T15:20:29.167Z,65.28
2023-02-01T15:21:32.036Z,65.38
2023-02-01T15:22:29.133Z,65.38
2023-02-01T15:23:29.109Z,65.48
2023-02-01T15:24:29.097Z,65.20
2023-02-01T15:25:29.085Z,65.31
2023-02-01T15:26:29.115Z,65.00
2023-02-01T15:27:34.112Z,64.59
2023-02-01T15:28:29.104Z,65.20
2023-02-01T15:29:29.038Z,66.03
2023-02-01T15:30:29.042Z,65.72
2023-02-01T15:31:29.157Z,65.83
2023-02-01T15:32:29.017Z,65.31
2023-02-01T15:33:28.993Z,65.62
2023-02-01T15:34:28.986Z,65.17
2023-02-01T15:35:28.976Z,65.62
2023-02-01T15:36:28.984Z,65.89
2023-02-01T15:37:28.963Z,65.28
2023-02-01T15:38:33.966Z,65.89
2023-02-01T15:39:28.925Z,65.28
2023-02-01T15:40:28.917Z,65.52
2023-02-01T15:41:28.910Z,65.31
2023-02-01T15:42:28.895Z,65.72
2023-02-01T15:43:28.907Z,65.92
2023-02-01T15:44:28.926Z,65.52
2023-02-01T15:45:28.865Z,65.52
2023-02-01T15:46:28.927Z,66.34
2023-02-01T15:47:28.836Z,66.85
2023-02-01T15:48:28.860Z,66.13
2023-02-01T15:49:33.841Z,66.13
2023-02-01T15:50:28.803Z,66.13
2023-02-01T15:51:28.822Z,66.34
2023-02-01T15:52:28.892Z,66.75
2023-02-01T15:53:28.779Z,66.34
2023-02-01T15:54:28.787Z,66.54
2023-02-01T15:55:28.746Z,66.54
2023-02-01T15:56:28.747Z,66.64
2023-02-01T15:57:28.721Z,66.85
2023-02-01T15:58:28.726Z,66.64
2023-02-01T15:59:28.700Z,66.16
2023-02-01T16:00:33.752Z,67.30
2023-02-01T16:01:28.724Z,67.06
2023-02-01T16:02:28.766Z,67.19
2023-02-01T16:03:28.689Z,67.06
2023-02-01T16:04:28.649Z,67.71
2023-02-01T16:05:28.637Z,67.30
2023-02-01T16:06:28.653Z,67.91
2023-02-01T16:07:28.623Z,68.32
2023-02-01T16:08:28.645Z,67.40
2023-02-01T16:09:28.589Z,68.02
2023-02-01T16:10:28.577Z,67.81
2023-02-01T16:11:33.586Z,67.91
2023-02-01T16:12:28.563Z,68.12
2023-02-01T16:13:28.554Z,67.71
2023-02-01T16:14:28.555Z,67.81
2023-02-01T16:15:28.519Z,67.71
2023-02-01T16:16:28.642Z,67.91
2023-02-01T16:17:28.495Z,68.53
2023-02-01T16:18:28.504Z,67.91
2023-02-01T16:19:28.487Z,68.12
2023-02-01T16:20:28.473Z,68.02
2023-02-01T16:21:28.452Z,67.50
2023-02-01T16:22:33.464Z,68.02
2023-02-01T16:23:29.313Z,68.63
2023-02-01T16:24:28.928Z,68.12
2023-02-01T16:25:28.404Z,68.12
2023-02-01T16:26:28.414Z,68.43
2023-02-01T16:27:28.383Z,68.63
2023-02-01T16:28:28.395Z,68.43
2023-02-01T16:29:28.377Z,68.84
2023-02-01T16:30:28.363Z,68.53
2023-02-01T16:31:28.485Z,69.04
2023-02-01T16:32:28.332Z,68.94
2023-02-01T16:33:33.360Z,69.04
2023-02-01T16:34:28.304Z,68.84
2023-02-01T16:35:28.318Z,68.63
2023-02-01T16:36:28.283Z,68.94
2023-02-01T16:37:28.270Z,69.25
2023-02-01T16:38:28.286Z,69.46
2023-02-01T16:39:28.249Z,69.15
2023-02-01T16:40:28.256Z,69.15
2023-02-01T16:41:28.227Z,69.25
2023-02-01T16:42:28.215Z,69.25
2023-02-01T16:43:28.351Z,69.70
2023-02-01T16:44:33.225Z,69.18
2023-02-01T16:45:28.182Z,69.59
2023-02-01T16:46:28.175Z,69.59
2023-02-01T16:47:28.189Z,69.70
2023-02-01T16:48:28.169Z,69.25
2023-02-01T16:49:28.147Z,69.46
2023-02-01T16:50:28.131Z,69.38
2023-02-01T16:51:28.115Z,69.87
2023-02-01T16:52:28.102Z,70.07
2023-02-01T16:53:28.088Z,70.18
2023-02-01T16:54:28.093Z,70.31
2023-02-01T16:55:33.107Z,70.18
2023-02-01T16:56:28.088Z,70.72
2023-02-01T16:57:28.049Z,70.69
2023-02-01T16:58:28.038Z,70.28
2023-02-01T16:59:28.031Z,70.18
2023-02-01T17:00:28.016Z,70.28
2023-02-01T17:01:28.055Z,70.48
2023-02-01T17:02:27.987Z,70.48
2023-02-01T17:03:27.980Z,70.42
2023-02-01T17:04:28.174Z,70.62
2023-02-01T17:05:28.261Z,70.38
2023-02-01T17:06:32.967Z,70.59
2023-02-01T17:07:27.941Z,70.69
2023-02-01T17:08:27.922Z,70.79
2023-02-01T17:09:27.922Z,70.62
2023-02-01T17:10:33.353Z,70.59
2023-02-01T17:11:28.914Z,70.69
2023-02-01T17:12:27.887Z,70.90
2023-02-01T17:13:27.863Z,70.79
2023-02-01T17:14:27.875Z,70.59
2023-02-01T17:15:27.846Z,70.79
2023-02-01T17:16:28.021Z,70.59
2023-02-01T17:17:38.912Z,70.07
2023-02-01T17:18:28.807Z,70.48
2023-02-01T17:19:27.810Z,70.69
2023-02-01T17:20:27.787Z,70.48
2023-02-01T17:21:27.789Z,70.07
2023-02-01T17:22:27.770Z,70.07
2023-02-01T17:23:27.748Z,70.48
2023-02-01T17:24:35.802Z,70.28
2023-02-01T17:25:28.771Z,70.31
2023-02-01T17:26:27.778Z,70.10
2023-02-01T17:27:27.726Z,70.21
2023-02-01T17:28:32.716Z,70.52
2023-02-01T17:29:27.698Z,70.93
2023-02-01T17:30:27.677Z,70.90
2023-02-01T17:31:27.795Z,71.55
2023-02-01T17:32:27.651Z,71.34
2023-02-01T17:33:27.661Z,71.34
2023-02-01T17:34:27.741Z,71.55
2023-02-01T17:35:28.095Z,71.34
2023-02-01T17:36:27.603Z,71.14
2023-02-01T17:37:27.601Z,71.14
2023-02-01T17:38:27.584Z,71.24
2023-02-01T17:39:32.602Z,71.14
2023-02-01T17:40:27.558Z,71.65
2023-02-01T17:41:27.645Z,71.65
2023-02-01T17:42:27.545Z,71.14
2023-02-01T17:43:27.576Z,70.96
2023-02-01T17:44:27.533Z,71.44
2023-02-01T17:45:27.511Z,71.44
2023-02-01T17:46:27.569Z,71.44
2023-02-01T17:47:27.492Z,71.44
2023-02-01T17:48:28.734Z,71.55
2023-02-01T17:49:27.466Z,71.44
2023-02-01T17:50:32.466Z,71.14
2023-02-01T17:51:27.470Z,71.44
2023-02-01T17:52:27.428Z,71.48